createdAt,value
2018-06-27T00:01:15.813Z,24.97
2018-06-27T00:03:43.647Z,22.20
2018-06-27T00:06:11.444Z,22.07
2018-06-27T00:08:39.284Z,20.03
2018-06-27T00:11:07.191Z,18.23
2018-06-27T00:13:35.023Z,17.23
2018-06-27T00:16:02.828Z,15.17
2018-06-27T00:18:30.752Z,15.87
2018-06-27T00:20:58.514Z,15.23
2018-06-27T00:23:26.329Z,16.17
2018-06-27T00:25:54.123Z,14.80
2018-06-27T00:28:21.991Z,14.67
2018-06-27T00:30:50.817Z,15.70
2018-06-27T00:33:18.598Z,14.93
2018-06-27T00:35:46.493Z,16.17
2018-06-27T00:38:16.031Z,16.00
2018-06-27T00:40:44.267Z,15.03
2018-06-27T00:43:38.152Z,15.30
2018-06-27T00:46:05.990Z,16.53
2018-06-27T00:48:33.818Z,15.97
2018-06-27T00:51:08.929Z,16.00
2018-06-27T00:53:54.655Z,17.13
2018-06-27T00:56:22.498Z,16.80
2018-06-27T00:58:50.413Z,17.17
2018-06-27T01:01:18.209Z,18.17
2018-06-27T01:03:46.041Z,17.83
2018-06-27T01:06:14.897Z,17.93
2018-06-27T01:08:42.761Z,18.23
2018-06-27T01:11:10.636Z,18.67
2018-06-27T01:13:38.522Z,18.90
2018-06-27T01:16:06.364Z,19.57
2018-06-27T01:18:35.239Z,19.17
2018-06-27T01:21:03.132Z,20.47
2018-06-27T01:23:30.858Z,21.43
2018-06-27T01:25:58.681Z,21.80
2018-06-27T01:28:26.513Z,21.33
2018-06-27T01:30:54.329Z,21.33
2018-06-27T01:33:22.128Z,21.93
2018-06-27T01:35:50.017Z,21.90
2018-06-27T01:38:17.858Z,23.07
2018-06-27T01:40:45.663Z,22.83
2018-06-27T01:43:13.551Z,29.60
2018-06-27T01:45:41.457Z,24.03
2018-06-27T01:48:09.290Z,24.83
2018-06-27T01:50:37.320Z,24.50
2018-06-27T01:53:06.145Z,26.33
2018-06-27T01:55:33.969Z,26.50
2018-06-27T01:58:01.826Z,27.10
2018-06-27T02:00:29.617Z,26.20
2018-06-27T02:02:57.409Z,29.63
2018-06-27T02:05:25.217Z,30.90
2018-06-27T02:07:53.036Z,29.47
2018-06-27T02:10:20.884Z,28.67
2018-06-27T02:12:48.754Z,29.10
2018-06-27T02:15:16.577Z,27.53
2018-06-27T02:17:44.408Z,29.53
2018-06-27T02:20:14.224Z,30.37
2018-06-27T02:22:42.114Z,30.37
2018-06-27T02:25:09.950Z,31.40
2018-06-27T02:27:37.885Z,31.27
2018-06-27T02:30:05.917Z,29.87
2018-06-27T02:32:33.768Z,30.77
2018-06-27T02:35:01.588Z,35.27
2018-06-27T02:37:43.323Z,35.33
2018-06-27T02:40:12.845Z,32.80
2018-06-27T02:45:21.744Z,34.67
2018-06-27T02:47:50.577Z,32.57
2018-06-27T02:50:18.625Z,31.97
2018-06-27T02:52:46.487Z,32.17
2018-06-27T02:55:14.296Z,32.40
2018-06-27T02:57:43.168Z,34.63
2018-06-27T03:00:14.695Z,33.20
2018-06-27T03:02:44.157Z,34.43
2018-06-27T03:05:12.459Z,34.97
2018-06-27T03:07:40.306Z,34.10
2018-06-27T03:10:08.101Z,37.63
2018-06-27T03:12:35.935Z,43.73
2018-06-27T03:15:04.457Z,44.90
2018-06-27T03:17:32.356Z,44.60
2018-06-27T03:20:00.158Z,47.23
2018-06-27T03:22:27.982Z,47.87
2018-06-27T03:24:55.813Z,46.43
2018-06-27T03:27:24.900Z,45.67
2018-06-27T03:29:52.744Z,43.77
2018-06-27T03:32:20.552Z,41.53
2018-06-27T03:34:48.336Z,40.77
2018-06-27T03:37:16.679Z,40.10
2018-06-27T03:39:53.649Z,41.87
2018-06-27T03:42:21.560Z,43.93
2018-06-27T03:44:49.396Z,43.50
2018-06-27T03:47:17.267Z,47.53
2018-06-27T03:49:45.141Z,100.50
2018-06-27T03:52:12.958Z,48.40
2018-06-27T03:54:40.748Z,48.10
2018-06-27T03:57:08.616Z,47.70
2018-06-27T03:59:36.443Z,50.83
2018-06-27T04:02:04.238Z,46.83
2018-06-27T04:04:32.060Z,49.43
2018-06-27T04:06:59.930Z,48.20
2018-06-27T04:09:27.752Z,48.53
2018-06-27T04:11:55.544Z,49.93
2018-06-27T04:14:23.443Z,51.07
2018-06-27T04:16:51.272Z,53.90
2018-06-27T04:19:19.049Z,45.13
2018-06-27T04:21:47.935Z,43.87
2018-06-27T04:24:15.763Z,37.70
2018-06-27T04:26:43.535Z,35.13
2018-06-27T04:29:11.338Z,32.90
2018-06-27T04:31:40.124Z,31.60
2018-06-27T04:34:07.908Z,29.80
2018-06-27T04:36:35.766Z,49.70
2018-06-27T04:39:06.026Z,27.17
2018-06-27T04:41:33.937Z,26.77
2018-06-27T04:44:01.795Z,29.07
2018-06-27T04:46:29.727Z,25.95
2018-06-27T04:48:57.701Z,22.98
2018-06-27T04:51:25.698Z,22.00
2018-06-27T04:53:53.507Z,22.40
2018-06-27T04:56:21.302Z,18.32
2018-06-27T04:58:49.135Z,18.37
2018-06-27T05:01:17.047Z,17.40
2018-06-27T05:03:44.972Z,18.97
2018-06-27T05:06:12.812Z,18.43
2018-06-27T05:08:41.633Z,16.50
2018-06-27T05:11:09.486Z,17.80
2018-06-27T05:13:37.359Z,18.57
2018-06-27T05:16:05.319Z,17.77
2018-06-27T05:18:33.199Z,16.73
2018-06-27T05:21:01.062Z,16.83
2018-06-27T05:23:29.852Z,17.50
2018-06-27T05:25:57.685Z,18.07
2018-06-27T05:28:25.528Z,17.17
2018-06-27T05:30:53.400Z,18.73
2018-06-27T05:33:21.451Z,16.83
2018-06-27T05:35:49.345Z,16.87
2018-06-27T05:38:17.123Z,18.43
2018-06-27T05:40:45.058Z,17.27
2018-06-27T05:43:12.956Z,17.33
2018-06-27T05:48:31.051Z,17.97
2018-06-27T05:50:58.919Z,17.37
2018-06-27T05:53:26.810Z,17.83
2018-06-27T05:55:54.618Z,16.20
2018-06-27T05:58:22.455Z,17.00
2018-06-27T06:00:50.195Z,16.73
2018-06-27T06:03:18.018Z,16.23
2018-06-27T06:05:45.775Z,15.63
2018-06-27T06:08:13.574Z,16.37
2018-06-27T06:10:41.341Z,16.50
2018-06-27T06:13:09.163Z,13.58
2018-06-27T06:15:37.108Z,14.18
2018-06-27T06:18:05.111Z,14.38
2018-06-27T06:20:33.129Z,14.60
2018-06-27T06:23:01.120Z,15.43
2018-06-27T06:25:29.184Z,15.60
2018-06-27T06:27:57.171Z,14.83
2018-06-27T06:30:25.105Z,15.88
2018-06-27T06:32:53.184Z,15.53
2018-06-27T06:35:21.157Z,17.40
2018-06-27T06:38:32.307Z,22.00
2018-06-27T06:41:00.228Z,20.27
2018-06-27T06:43:28.090Z,18.23
2018-06-27T06:45:56.006Z,18.10
2018-06-27T06:48:23.853Z,17.70
2018-06-27T06:50:51.691Z,21.80
2018-06-27T06:53:19.557Z,17.87
2018-06-27T06:55:47.419Z,18.07
2018-06-27T06:58:15.289Z,18.00
2018-06-27T07:00:43.113Z,19.75
2018-06-27T07:03:10.916Z,18.07
2018-06-27T07:05:38.748Z,17.80
2018-06-27T07:08:06.584Z,19.57
2018-06-27T07:10:34.430Z,20.17
2018-06-27T07:13:02.302Z,19.75
2018-06-27T07:15:30.111Z,18.48
2018-06-27T07:17:58.049Z,18.05
2018-06-27T07:22:59.579Z,22.15
2018-06-27T07:25:27.438Z,17.82
2018-06-27T07:27:55.307Z,20.55
2018-06-27T07:30:23.213Z,22.35
2018-06-27T07:32:51.265Z,20.82
2018-06-27T07:35:20.171Z,21.62
2018-06-27T07:37:48.028Z,22.22
2018-06-27T07:40:15.928Z,23.67
2018-06-27T07:42:43.861Z,24.10
2018-06-27T07:45:11.799Z,23.73
2018-06-27T07:47:39.663Z,23.65
2018-06-27T07:50:07.632Z,23.20
2018-06-27T07:52:36.529Z,21.10
2018-06-27T07:55:04.450Z,25.48
2018-06-27T07:57:32.263Z,22.73
2018-06-27T08:00:00.150Z,22.52
2018-06-27T08:02:29.038Z,25.62
2018-06-27T08:04:56.905Z,20.35
2018-06-27T08:07:24.753Z,22.42
2018-06-27T08:09:52.593Z,23.92
2018-06-27T08:12:20.538Z,24.37
2018-06-27T08:14:48.371Z,22.73
2018-06-27T08:17:17.309Z,22.15
2018-06-27T08:19:45.175Z,25.02
2018-06-27T08:22:13.100Z,24.32
2018-06-27T08:24:44.011Z,19.32
2018-06-27T08:27:11.844Z,18.52
2018-06-27T08:29:39.910Z,16.57
2018-06-27T08:32:07.753Z,18.07
2018-06-27T08:34:35.603Z,18.30
2018-06-27T08:37:03.434Z,17.40
2018-06-27T08:39:31.266Z,18.57
2018-06-27T08:41:59.040Z,19.82
2018-06-27T08:44:26.900Z,19.45
2018-06-27T08:46:54.700Z,18.80
2018-06-27T08:49:22.450Z,20.12
2018-06-27T08:51:50.184Z,20.60
2018-06-27T08:54:17.987Z,20.95
2018-06-27T08:56:45.751Z,20.60
2018-06-27T08:59:13.518Z,20.68
2018-06-27T09:01:41.326Z,21.37
2018-06-27T09:04:09.082Z,19.05
2018-06-27T09:06:37.123Z,17.75
2018-06-27T09:09:07.475Z,18.87
2018-06-27T09:15:13.489Z,20.43
2018-06-27T09:17:41.285Z,19.30
2018-06-27T09:20:09.037Z,21.93
2018-06-27T09:22:36.808Z,20.35
2018-06-27T09:25:04.623Z,19.90
2018-06-27T09:27:32.444Z,18.85
2018-06-27T09:30:26.609Z,19.52
2018-06-27T09:32:54.453Z,20.12
2018-06-27T09:35:22.297Z,21.23
2018-06-27T09:37:50.090Z,19.70
2018-06-27T09:40:18.971Z,20.80
2018-06-27T09:42:46.739Z,20.65
2018-06-27T09:45:14.613Z,19.55
2018-06-27T09:47:42.471Z,20.70
2018-06-27T09:50:10.592Z,21.30
2018-06-27T09:52:38.455Z,21.93
2018-06-27T09:55:06.431Z,19.90
2018-06-27T09:57:34.224Z,20.77
2018-06-27T10:00:02.053Z,22.40
2018-06-27T10:02:29.870Z,19.98
2018-06-27T10:04:57.741Z,21.42
2018-06-27T10:07:25.577Z,20.97
2018-06-27T10:09:53.377Z,19.80
2018-06-27T10:12:21.213Z,22.13
2018-06-27T10:14:49.068Z,23.15
2018-06-27T10:17:16.848Z,22.93
2018-06-27T10:19:44.647Z,22.87
2018-06-27T10:22:12.647Z,22.13
2018-06-27T10:24:41.971Z,29.27
2018-06-27T10:27:09.901Z,22.90
2018-06-27T10:29:37.773Z,20.72
2018-06-27T10:32:05.595Z,20.02
2018-06-27T10:34:33.505Z,23.32
2018-06-27T10:37:01.291Z,21.12
2018-06-27T10:39:29.114Z,19.30
2018-06-27T10:41:56.921Z,18.10
2018-06-27T10:44:24.814Z,20.82
2018-06-27T10:46:52.906Z,23.50
2018-06-27T10:49:20.863Z,19.80
2018-06-27T10:51:48.729Z,20.57
2018-06-27T10:54:16.662Z,20.82
2018-06-27T10:56:44.583Z,21.35
2018-06-27T10:59:12.627Z,19.67
2018-06-27T11:01:40.722Z,15.93
2018-06-27T11:04:08.488Z,19.10
2018-06-27T11:06:36.323Z,17.67
2018-06-27T11:09:06.651Z,19.37
2018-06-27T11:11:34.576Z,17.60
2018-06-27T11:14:02.384Z,18.82
2018-06-27T11:16:30.197Z,14.13
2018-06-27T11:18:58.065Z,12.93
2018-06-27T11:21:25.854Z,15.45
2018-06-27T11:23:53.690Z,12.50
2018-06-27T11:26:21.801Z,11.68
2018-06-27T11:28:49.683Z,10.60
2018-06-27T11:31:17.584Z,9.58
2018-06-27T11:33:45.436Z,10.13
2018-06-27T11:36:13.276Z,9.13
2018-06-27T11:38:41.067Z,8.18
2018-06-27T11:41:08.930Z,7.72
2018-06-27T11:43:36.976Z,7.35
2018-06-27T11:46:04.864Z,10.25
2018-06-27T11:48:32.878Z,9.33
2018-06-27T11:51:00.672Z,8.13
2018-06-27T11:53:28.464Z,8.68
2018-06-27T11:55:56.502Z,5.22
2018-06-27T11:58:24.344Z,9.13
2018-06-27T12:00:52.193Z,9.30
2018-06-27T12:03:19.995Z,9.15
2018-06-27T12:05:48.787Z,9.58
2018-06-27T12:08:16.651Z,8.95
2018-06-27T12:10:44.484Z,8.63
2018-06-27T12:13:12.298Z,8.53
2018-06-27T12:15:40.119Z,8.18
2018-06-27T12:18:08.367Z,9.23
2018-06-27T12:20:38.049Z,10.85
2018-06-27T12:23:05.842Z,7.75
2018-06-27T12:25:33.680Z,9.73
2018-06-27T12:28:01.497Z,9.20
2018-06-27T12:30:29.371Z,10.63
2018-06-27T12:32:57.137Z,9.05
2018-06-27T12:35:24.925Z,8.90
2018-06-27T12:37:52.680Z,10.68
2018-06-27T12:40:21.507Z,9.38
2018-06-27T12:42:49.290Z,10.43
2018-06-27T12:45:17.120Z,9.28
2018-06-27T12:47:44.936Z,9.43
2018-06-27T12:50:12.755Z,9.20
2018-06-27T12:52:56.041Z,11.53
2018-06-27T12:55:58.203Z,8.65
2018-06-27T12:58:26.025Z,9.43
2018-06-27T13:00:53.905Z,16.05
2018-06-27T13:03:21.871Z,10.95
2018-06-27T13:05:49.689Z,10.60
2018-06-27T13:08:17.488Z,10.03
2018-06-27T13:10:45.298Z,12.33
2018-06-27T13:13:13.071Z,11.05
2018-06-27T13:15:40.813Z,12.13
2018-06-27T13:18:09.390Z,10.82
2018-06-27T13:20:37.282Z,12.18
2018-06-27T13:23:05.103Z,11.53
2018-06-27T13:25:32.945Z,12.43
2018-06-27T13:28:00.871Z,12.07
2018-06-27T13:30:28.711Z,13.58
2018-06-27T13:35:57.437Z,11.00
2018-06-27T13:38:25.519Z,12.20
2018-06-27T13:40:53.425Z,11.78
2018-06-27T13:44:01.708Z,13.38
2018-06-27T13:46:29.532Z,12.43
2018-06-27T13:48:57.291Z,11.80
2018-06-27T13:51:25.053Z,14.35
2018-06-27T13:53:52.880Z,13.88
2018-06-27T13:56:20.641Z,15.98
2018-06-27T13:58:48.458Z,15.13
2018-06-27T14:01:16.257Z,15.00
2018-06-27T14:03:44.177Z,15.55
2018-06-27T14:06:12.028Z,12.82
2018-06-27T14:08:40.958Z,14.25
2018-06-27T14:11:08.687Z,14.33
2018-06-27T14:13:36.479Z,13.45
2018-06-27T14:16:04.551Z,14.03
2018-06-27T14:18:35.696Z,15.35
2018-06-27T14:21:03.612Z,13.98
2018-06-27T14:23:31.709Z,17.05
2018-06-27T14:25:59.567Z,13.38
2018-06-27T14:28:27.421Z,15.53
2018-06-27T14:30:55.327Z,14.23
2018-06-27T14:33:23.396Z,13.30
2018-06-27T14:35:51.351Z,14.80
2018-06-27T14:38:35.443Z,16.32
2018-06-27T14:44:48.364Z,16.67
2018-06-27T14:47:16.239Z,17.05
2018-06-27T14:49:44.870Z,14.93
2018-06-27T14:52:12.739Z,15.88
2018-06-27T14:54:40.509Z,13.93
2018-06-27T14:57:08.793Z,16.90
2018-06-27T14:59:36.757Z,15.80
2018-06-27T15:02:05.550Z,13.03
2018-06-27T15:04:33.499Z,13.40
2018-06-27T15:07:01.289Z,19.57
2018-06-27T15:09:29.280Z,14.95
2018-06-27T15:11:57.134Z,14.65
2018-06-27T15:14:24.951Z,18.00
2018-06-27T15:16:52.839Z,16.55
2018-06-27T15:19:20.731Z,14.13
2018-06-27T15:22:02.163Z,15.90
2018-06-27T15:24:30.056Z,12.58
2018-06-27T15:26:58.063Z,14.18
2018-06-27T15:29:25.900Z,16.90
2018-06-27T15:31:53.729Z,16.15
2018-06-27T15:34:21.682Z,15.53
2018-06-27T15:36:50.207Z,15.05
2018-06-27T15:39:18.145Z,18.57
2018-06-27T15:41:45.933Z,13.15
2018-06-27T15:44:14.530Z,13.05
2018-06-27T15:46:42.599Z,9.13
2018-06-27T15:49:10.731Z,7.25
2018-06-27T15:51:38.982Z,8.50
2018-06-27T15:54:06.950Z,9.33
2018-06-27T15:56:34.846Z,9.15
2018-06-27T15:59:02.735Z,8.95
2018-06-27T16:01:30.909Z,9.15
2018-06-27T16:03:58.902Z,9.65
2018-06-27T16:06:26.888Z,8.90
2018-06-27T16:08:54.673Z,11.63
2018-06-27T16:11:22.533Z,10.75
2018-06-27T16:13:50.549Z,9.43
2018-06-27T16:16:18.353Z,8.95
2018-06-27T16:18:46.168Z,9.55
2018-06-27T16:21:14.962Z,9.40
2018-06-27T16:23:42.779Z,9.20
2018-06-27T16:26:10.615Z,10.58
2018-06-27T16:28:38.495Z,10.48
2018-06-27T16:31:51.024Z,10.20
2018-06-27T16:34:26.056Z,10.03
2018-06-27T16:36:54.016Z,9.75
2018-06-27T16:39:21.858Z,10.40
2018-06-27T16:41:49.730Z,9.60
2018-06-27T16:44:17.557Z,10.05
2018-06-27T16:46:45.482Z,11.50
2018-06-27T16:49:13.308Z,9.60
2018-06-27T16:51:44.067Z,9.85
2018-06-27T16:54:12.057Z,8.83
2018-06-27T16:56:40.898Z,9.00
2018-06-27T16:59:08.780Z,7.62
2018-06-27T17:01:36.841Z,7.65
2018-06-27T17:04:04.675Z,7.65
2018-06-27T17:06:33.168Z,7.72
2018-06-27T17:09:06.978Z,7.60
2018-06-27T17:11:34.814Z,7.33
2018-06-27T17:14:02.741Z,7.85
2018-06-27T17:16:30.564Z,5.67
2018-06-27T17:18:59.465Z,8.03
2018-06-27T17:21:27.299Z,7.20
2018-06-27T17:23:55.269Z,5.78
2018-06-27T17:26:23.041Z,6.50
2018-06-27T17:28:50.833Z,5.65
2018-06-27T17:31:18.775Z,8.23
2018-06-27T17:33:46.644Z,6.97
2018-06-27T17:36:14.561Z,7.33
2018-06-27T17:38:42.329Z,6.65
2018-06-27T17:41:40.938Z,6.78
2018-06-27T17:46:58.801Z,8.33
2018-06-27T17:49:26.627Z,7.60
2018-06-27T17:51:54.444Z,7.60
2018-06-27T17:54:23.304Z,7.33
2018-06-27T17:56:51.134Z,7.67
2018-06-27T17:59:19.067Z,6.37
2018-06-27T18:01:46.985Z,7.03
2018-06-27T18:04:15.182Z,6.95
2018-06-27T18:06:43.113Z,7.00
2018-06-27T18:09:10.988Z,6.75
2018-06-27T18:11:39.448Z,6.92
2018-06-27T18:14:07.358Z,8.60
2018-06-27T18:16:35.450Z,8.05
2018-06-27T18:19:03.403Z,7.30
2018-06-27T18:21:31.570Z,7.05
2018-06-27T18:23:59.395Z,6.97
2018-06-27T18:26:27.212Z,6.10
2018-06-27T18:28:54.990Z,6.15
2018-06-27T18:31:22.864Z,6.15
2018-06-27T18:33:50.786Z,7.40
2018-06-27T18:36:18.658Z,6.75
2018-06-27T18:38:46.444Z,7.12
2018-06-27T18:41:14.380Z,7.00
2018-06-27T18:43:42.179Z,6.65
2018-06-27T18:46:37.071Z,8.10
2018-06-27T18:49:07.350Z,7.70
2018-06-27T18:51:48.410Z,7.00
2018-06-27T18:54:16.340Z,7.37
2018-06-27T18:56:44.215Z,9.10
2018-06-27T18:59:12.105Z,8.58
2018-06-27T19:01:39.975Z,8.90
2018-06-27T19:04:07.880Z,7.90
2018-06-27T19:06:35.738Z,8.30
2018-06-27T19:09:05.781Z,8.38
2018-06-27T19:11:33.655Z,8.60
2018-06-27T19:14:02.679Z,9.65
2018-06-27T19:16:30.522Z,11.38
2018-06-27T19:18:58.567Z,10.50
2018-06-27T19:21:26.563Z,10.45
2018-06-27T19:23:54.420Z,11.65
2018-06-27T19:26:22.486Z,11.25
2018-06-27T19:28:50.429Z,11.00
2018-06-27T19:31:18.328Z,11.53
2018-06-27T19:33:46.239Z,11.30
2018-06-27T19:36:14.072Z,12.20
2018-06-27T19:38:43.387Z,12.05
2018-06-27T19:41:11.420Z,12.63
2018-06-27T19:43:39.268Z,12.93
2018-06-27T19:46:07.191Z,12.17
2018-06-27T19:48:35.035Z,13.55
2018-06-27T19:51:02.942Z,12.40
2018-06-27T19:53:30.847Z,13.08
2018-06-27T19:55:58.787Z,13.10
2018-06-27T19:58:26.678Z,12.93
2018-06-27T20:00:54.483Z,13.13
2018-06-27T20:03:22.428Z,12.65
2018-06-27T20:05:50.267Z,12.07
2018-06-27T20:08:18.126Z,11.85
2018-06-27T20:10:46.064Z,12.55
2018-06-27T20:13:14.063Z,12.70
2018-06-27T20:15:41.887Z,12.85
2018-06-27T20:18:09.729Z,13.35
2018-06-27T20:20:37.584Z,14.73
2018-06-27T20:23:05.559Z,14.07
2018-06-27T20:25:33.396Z,14.70
2018-06-27T20:28:01.269Z,14.83
2018-06-27T20:30:29.362Z,15.75
2018-06-27T20:32:57.256Z,15.03
2018-06-27T20:35:25.573Z,18.17
2018-06-27T20:37:53.489Z,19.20
2018-06-27T20:40:21.334Z,17.37
2018-06-27T20:42:52.449Z,16.85
2018-06-27T20:45:20.444Z,15.98
2018-06-27T20:47:52.428Z,16.62
2018-06-27T20:50:21.554Z,17.42
2018-06-27T20:52:49.392Z,17.17
2018-06-27T20:55:20.063Z,17.92
2018-06-27T20:57:48.665Z,17.00
2018-06-27T21:00:16.703Z,17.92
2018-06-27T21:02:44.500Z,17.55
2018-06-27T21:05:12.348Z,17.95
2018-06-27T21:07:40.126Z,17.60
2018-06-27T21:10:07.931Z,18.52
2018-06-27T21:12:35.757Z,19.17
2018-06-27T21:15:24.686Z,18.87
2018-06-27T21:18:18.886Z,20.15
2018-06-27T21:20:46.737Z,19.10
2018-06-27T21:23:14.533Z,19.77
2018-06-27T21:25:42.345Z,19.15
2018-06-27T21:28:10.167Z,19.77
2018-06-27T21:30:37.944Z,19.65
2018-06-27T21:33:05.816Z,20.27
2018-06-27T21:35:34.152Z,19.65
2018-06-27T21:38:01.885Z,20.08
2018-06-27T21:40:29.697Z,20.52
2018-06-27T21:42:57.482Z,20.45
2018-06-27T21:45:25.356Z,20.15
2018-06-27T21:47:53.150Z,21.15
2018-06-27T21:50:21.081Z,20.20
2018-06-27T21:52:48.846Z,21.10
2018-06-27T21:55:16.666Z,22.02
2018-06-27T21:57:44.614Z,20.57
2018-06-27T22:00:12.562Z,21.42
2018-06-27T22:02:40.410Z,21.10
2018-06-27T22:05:08.333Z,21.33
2018-06-27T22:07:36.091Z,21.62
2018-06-27T22:10:04.003Z,20.62
2018-06-27T22:12:33.785Z,19.95
2018-06-27T22:15:01.638Z,21.33
2018-06-27T22:17:29.476Z,20.25
2018-06-27T22:19:57.218Z,20.70
2018-06-27T22:22:24.971Z,20.92
2018-06-27T22:24:52.787Z,20.77
2018-06-27T22:27:20.580Z,21.93
2018-06-27T22:29:48.512Z,20.27
2018-06-27T22:32:16.316Z,19.48
2018-06-27T22:34:44.123Z,19.27
2018-06-27T22:37:11.909Z,18.85
2018-06-27T22:40:03.408Z,19.55
2018-06-27T22:42:31.412Z,19.27
2018-06-27T22:44:59.446Z,17.98
2018-06-27T22:47:27.232Z,18.98
2018-06-27T22:49:55.080Z,18.12
2018-06-27T22:52:22.881Z,18.50
2018-06-27T22:54:50.631Z,17.27
2018-06-27T22:57:18.394Z,17.67
2018-06-27T22:59:46.117Z,17.55
2018-06-27T23:02:13.945Z,17.57
2018-06-27T23:04:41.696Z,17.45
2018-06-27T23:07:09.474Z,16.62
2018-06-27T23:09:39.359Z,16.37
2018-06-27T23:12:07.361Z,17.37
2018-06-27T23:14:35.132Z,16.05
2018-06-27T23:17:03.350Z,16.95
2018-06-27T23:19:31.115Z,17.87
2018-06-27T23:21:58.881Z,18.17
2018-06-27T23:24:26.662Z,17.27
2018-06-27T23:26:54.483Z,17.55
2018-06-27T23:29:22.286Z,17.95
2018-06-27T23:31:50.161Z,17.57
2018-06-27T23:34:17.921Z,18.65
2018-06-27T23:36:45.677Z,16.82
2018-06-27T23:39:13.519Z,19.37
2018-06-27T23:41:42.212Z,17.27
2018-06-27T23:44:10.074Z,18.12
2018-06-27T23:46:38.022Z,18.17
2018-06-27T23:49:06.205Z,19.02
2018-06-27T23:51:33.986Z,19.55
2018-06-27T23:54:18.760Z,18.45
2018-06-27T23:57:29.985Z,19.62
2018-06-27T23:59:57.877Z,20.30
